sensor_id;sensor_type;location;lat;lon;timestamp;pressure;altitude;pressure_sealevel;temperature;humidity
76311;BME280;65120;59.304;18.294;2022-12-26T00:01:26;101561.91;;;1.79;74.94
76311;BME280;65120;59.304;18.294;2022-12-26T00:03:54;101562.06;;;1.84;74.89
76311;BME280;65120;59.304;18.294;2022-12-26T00:06:24;101564.69;;;1.85;74.75
76311;BME280;65120;59.304;18.294;2022-12-26T00:08:52;101562.16;;;1.87;75.10
76311;BME280;65120;59.304;18.294;2022-12-26T00:11:19;101563.09;;;1.89;74.90
76311;BME280;65120;59.304;18.294;2022-12-26T00:13:47;101556.22;;;1.89;74.70
76311;BME280;65120;59.304;18.294;2022-12-26T00:16:19;101559.72;;;1.91;75.25
76311;BME280;65120;59.304;18.294;2022-12-26T00:18:46;101560.59;;;1.92;75.30
76311;BME280;65120;59.304;18.294;2022-12-26T00:21:14;101557.25;;;1.94;74.90
76311;BME280;65120;59.304;18.294;2022-12-26T00:23:44;101565.84;;;1.95;75.04
76311;BME280;65120;59.304;18.294;2022-12-26T00:26:13;101558.16;;;1.96;74.88
76311;BME280;65120;59.304;18.294;2022-12-26T00:28:41;101557.25;;;1.96;74.65
76311;BME280;65120;59.304;18.294;2022-12-26T00:31:10;101553.91;;;1.98;74.72
76311;BME280;65120;59.304;18.294;2022-12-26T00:33:38;101550.47;;;1.98;74.32
76311;BME280;65120;59.304;18.294;2022-12-26T00:36:07;101549.69;;;2.00;75.10
76311;BME280;65120;59.304;18.294;2022-12-26T00:38:35;101548.03;;;2.02;74.65
76311;BME280;65120;59.304;18.294;2022-12-26T00:41:04;101553.19;;;2.02;74.66
76311;BME280;65120;59.304;18.294;2022-12-26T00:43:31;101549.75;;;2.03;74.18
76311;BME280;65120;59.304;18.294;2022-12-26T00:45:58;101538.59;;;2.03;74.63
76311;BME280;65120;59.304;18.294;2022-12-26T00:48:25;101532.66;;;2.06;74.18
76311;BME280;65120;59.304;18.294;2022-12-26T00:50:52;101539.59;;;2.08;74.54
76311;BME280;65120;59.304;18.294;2022-12-26T00:53:20;101538.75;;;2.09;74.65
76311;BME280;65120;59.304;18.294;2022-12-26T00:55:47;101522.44;;;2.09;74.72
76311;BME280;65120;59.304;18.294;2022-12-26T00:58:16;101526.81;;;2.11;74.04
76311;BME280;65120;59.304;18.294;2022-12-26T01:00:43;101524.22;;;2.11;74.24
76311;BME280;65120;59.304;18.294;2022-12-26T01:03:11;101520.88;;;2.14;73.94
76311;BME280;65120;59.304;18.294;2022-12-26T01:05:40;101513.16;;;2.15;73.88
76311;BME280;65120;59.304;18.294;2022-12-26T01:08:07;101508.88;;;2.16;73.96
76311;BME280;65120;59.304;18.294;2022-12-26T01:10:33;101508.88;;;2.16;74.04
76311;BME280;65120;59.304;18.294;2022-12-26T01:13:00;101495.16;;;2.17;74.02
76311;BME280;65120;59.304;18.294;2022-12-26T01:15:29;101484.84;;;2.17;74.40
76311;BME280;65120;59.304;18.294;2022-12-26T01:17:57;101489.22;;;2.19;74.26
76311;BME280;65120;59.304;18.294;2022-12-26T01:20:24;101490.13;;;2.21;73.88
76311;BME280;65120;59.304;18.294;2022-12-26T01:22:51;101488.41;;;2.22;74.28
76311;BME280;65120;59.304;18.294;2022-12-26T01:25:18;101476.41;;;2.22;74.27
76311;BME280;65120;59.304;18.294;2022-12-26T01:27:45;101489.38;;;2.25;74.24
76311;BME280;65120;59.304;18.294;2022-12-26T01:30:12;101482.53;;;2.26;74.62
76311;BME280;65120;59.304;18.294;2022-12-26T01:32:40;101486.03;;;2.28;74.68
76311;BME280;65120;59.304;18.294;2022-12-26T01:35:08;101486.03;;;2.30;74.17
76311;BME280;65120;59.304;18.294;2022-12-26T01:37:35;101477.44;;;2.29;74.46
76311;BME280;65120;59.304;18.294;2022-12-26T01:40:02;101486.97;;;2.32;74.34
76311;BME280;65120;59.304;18.294;2022-12-26T01:42:35;101485.31;;;2.34;74.03
76311;BME280;65120;59.304;18.294;2022-12-26T01:45:20;101475.88;;;2.34;74.04
76311;BME280;65120;59.304;18.294;2022-12-26T01:47:52;101475.88;;;2.36;74.43
76311;BME280;65120;59.304;18.294;2022-12-26T01:50:27;101475.94;;;2.37;74.35
76311;BME280;65120;59.304;18.294;2022-12-26T01:52:55;101464.78;;;2.38;74.46
76311;BME280;65120;59.304;18.294;2022-12-26T01:55:24;101462.13;;;2.35;74.55
76311;BME280;65120;59.304;18.294;2022-12-26T01:57:54;101457.91;;;2.39;74.72
76311;BME280;65120;59.304;18.294;2022-12-26T02:00:22;101451.09;;;2.41;74.16
76311;BME280;65120;59.304;18.294;2022-12-26T02:02:51;101456.31;;;2.42;74.25
76311;BME280;65120;59.304;18.294;2022-12-26T02:05:35;101450.31;;;2.43;74.68
76311;BME280;65120;59.304;18.294;2022-12-26T02:08:05;101440.00;;;2.43;75.09
76311;BME280;65120;59.304;18.294;2022-12-26T02:10:38;101439.16;;;2.44;74.44
76311;BME280;65120;59.304;18.294;2022-12-26T02:13:09;101436.63;;;2.46;74.82
76311;BME280;65120;59.304;18.294;2022-12-26T02:15:37;101428.06;;;2.47;74.92
76311;BME280;65120;59.304;18.294;2022-12-26T02:18:06;101427.25;;;2.50;74.71
76311;BME280;65120;59.304;18.294;2022-12-26T02:20:40;101438.44;;;2.50;74.28
76311;BME280;65120;59.304;18.294;2022-12-26T02:30:09;101418.72;;;2.52;74.52
76311;BME280;65120;59.304;18.294;2022-12-26T02:38:48;101434.25;;;2.54;74.21
76311;BME280;65120;59.304;18.294;2022-12-26T02:41:27;101431.69;;;2.54;74.24
76311;BME280;65120;59.304;18.294;2022-12-26T02:44:07;101428.25;;;2.55;74.83
76311;BME280;65120;59.304;18.294;2022-12-26T02:46:58;101420.50;;;2.55;74.40
76311;BME280;65120;59.304;18.294;2022-12-26T02:49:44;101432.56;;;2.56;74.58
76311;BME280;65120;59.304;18.294;2022-12-26T02:52:41;101434.31;;;2.57;74.06
76311;BME280;65120;59.304;18.294;2022-12-26T02:55:31;101424.00;;;2.57;74.57
76311;BME280;65120;59.304;18.294;2022-12-26T02:58:18;101418.84;;;2.57;74.68
76311;BME280;65120;59.304;18.294;2022-12-26T03:01:10;101412.78;;;2.55;74.76
76311;BME280;65120;59.304;18.294;2022-12-26T03:03:59;101405.97;;;2.57;75.00
76311;BME280;65120;59.304;18.294;2022-12-26T03:09:38;101399.00;;;2.54;74.61
76311;BME280;65120;59.304;18.294;2022-12-26T03:12:32;101400.81;;;2.57;74.35
76311;BME280;65120;59.304;18.294;2022-12-26T03:15:21;101400.81;;;2.57;74.49
76311;BME280;65120;59.304;18.294;2022-12-26T03:17:53;101393.94;;;2.57;75.29
76311;BME280;65120;59.304;18.294;2022-12-26T03:20:23;101394.72;;;2.55;74.79
76311;BME280;65120;59.304;18.294;2022-12-26T03:22:54;101384.47;;;2.58;74.53
76311;BME280;65120;59.304;18.294;2022-12-26T03:25:29;101390.50;;;2.58;74.66
76311;BME280;65120;59.304;18.294;2022-12-26T03:28:15;101394.78;;;2.58;74.58
76311;BME280;65120;59.304;18.294;2022-12-26T03:30:42;101392.28;;;2.59;74.70
76311;BME280;65120;59.304;18.294;2022-12-26T03:33:14;101386.22;;;2.59;75.46
76311;BME280;65120;59.304;18.294;2022-12-26T03:35:59;101379.31;;;2.56;75.09
76311;BME280;65120;59.304;18.294;2022-12-26T03:38:31;101379.31;;;2.58;75.48
76311;BME280;65120;59.304;18.294;2022-12-26T03:41:05;101372.50;;;2.60;74.81
76311;BME280;65120;59.304;18.294;2022-12-26T03:44:00;101366.47;;;2.59;75.08
76311;BME280;65120;59.304;18.294;2022-12-26T03:46:59;101365.56;;;2.59;75.24
76311;BME280;65120;59.304;18.294;2022-12-26T03:49:53;101364.75;;;2.60;75.24
76311;BME280;65120;59.304;18.294;2022-12-26T03:52:43;101361.34;;;2.61;75.32
76311;BME280;65120;59.304;18.294;2022-12-26T03:55:34;101355.25;;;2.59;75.06
76311;BME280;65120;59.304;18.294;2022-12-26T03:58:26;101356.19;;;2.61;75.44
76311;BME280;65120;59.304;18.294;2022-12-26T04:01:16;101347.56;;;2.60;75.45
76311;BME280;65120;59.304;18.294;2022-12-26T04:04:06;101345.03;;;2.62;75.46
76311;BME280;65120;59.304;18.294;2022-12-26T04:06:55;101347.63;;;2.62;75.40
76311;BME280;65120;59.304;18.294;2022-12-26T04:09:43;101335.59;;;2.62;75.82
76311;BME280;65120;59.304;18.294;2022-12-26T04:12:30;101340.75;;;2.62;75.33
76311;BME280;65120;59.304;18.294;2022-12-26T04:15:20;101339.97;;;2.65;75.70
76311;BME280;65120;59.304;18.294;2022-12-26T04:18:11;101338.19;;;2.64;75.94
76311;BME280;65120;59.304;18.294;2022-12-26T04:21:05;101341.69;;;2.66;75.93
76311;BME280;65120;59.304;18.294;2022-12-26T04:23:57;101342.56;;;2.66;75.36
76311;BME280;65120;59.304;18.294;2022-12-26T04:26:45;101340.84;;;2.67;75.86
76311;BME280;65120;59.304;18.294;2022-12-26T04:29:31;101338.25;;;2.67;75.47
76311;BME280;65120;59.304;18.294;2022-12-26T04:32:21;101333.09;;;2.67;75.75
76311;BME280;65120;59.304;18.294;2022-12-26T04:35:12;101332.28;;;2.68;75.53
76311;BME280;65120;59.304;18.294;2022-12-26T04:37:58;101338.25;;;2.67;75.38
76311;BME280;65120;59.304;18.294;2022-12-26T04:40:45;101340.88;;;2.68;75.38
76311;BME280;65120;59.304;18.294;2022-12-26T04:43:33;101330.53;;;2.67;75.60
76311;BME280;65120;59.304;18.294;2022-12-26T04:46:19;101335.75;;;2.70;75.29
76311;BME280;65120;59.304;18.294;2022-12-26T04:48:50;101327.16;;;2.69;75.25
76311;BME280;65120;59.304;18.294;2022-12-26T04:51:35;101335.75;;;2.70;75.84
76311;BME280;65120;59.304;18.294;2022-12-26T04:54:03;101327.16;;;2.69;75.63
76311;BME280;65120;59.304;18.294;2022-12-26T04:56:30;101325.47;;;2.72;75.33
76311;BME280;65120;59.304;18.294;2022-12-26T04:58:57;101322.84;;;2.70;75.94
76311;BME280;65120;59.304;18.294;2022-12-26T05:01:25;101323.75;;;2.72;75.29
76311;BME280;65120;59.304;18.294;2022-12-26T05:04:14;101316.03;;;2.72;75.60
76311;BME280;65120;59.304;18.294;2022-12-26T05:06:59;101303.78;;;2.63;75.39
76311;BME280;65120;59.304;18.294;2022-12-26T05:09:44;101317.75;;;2.73;75.58
76311;BME280;65120;59.304;18.294;2022-12-26T05:12:11;101304.03;;;2.74;75.69
76311;BME280;65120;59.304;18.294;2022-12-26T05:14:38;101301.41;;;2.73;75.61
76311;BME280;65120;59.304;18.294;2022-12-26T05:17:06;101306.63;;;2.74;75.20
76311;BME280;65120;59.304;18.294;2022-12-26T05:19:52;101293.72;;;2.74;75.86
76311;BME280;65120;59.304;18.294;2022-12-26T05:22:39;101281.63;;;2.73;75.91
76311;BME280;65120;59.304;18.294;2022-12-26T05:25:25;101285.97;;;2.74;75.56
76311;BME280;65120;59.304;18.294;2022-12-26T05:28:12;101280.78;;;2.73;75.76
76311;BME280;65120;59.304;18.294;2022-12-26T05:30:56;101278.25;;;2.74;75.71
76311;BME280;65120;59.304;18.294;2022-12-26T05:33:24;101268.72;;;2.72;76.19
76311;BME280;65120;59.304;18.294;2022-12-26T05:36:10;101273.09;;;2.76;75.88
76311;BME280;65120;59.304;18.294;2022-12-26T05:38:38;101275.69;;;2.76;75.66
76311;BME280;65120;59.304;18.294;2022-12-26T05:41:05;101278.31;;;2.77;75.57
76311;BME280;65120;59.304;18.294;2022-12-26T05:43:32;101277.47;;;2.78;75.99
76311;BME280;65120;59.304;18.294;2022-12-26T05:45:59;101268.91;;;2.79;75.84
76311;BME280;65120;59.304;18.294;2022-12-26T05:48:25;101264.50;;;2.75;76.06
76311;BME280;65120;59.304;18.294;2022-12-26T05:50:57;101268.00;;;2.77;76.12
76311;BME280;65120;59.304;18.294;2022-12-26T05:53:25;101278.38;;;2.80;75.80
76311;BME280;65120;59.304;18.294;2022-12-26T05:55:52;101271.53;;;2.82;76.08
76311;BME280;65120;59.304;18.294;2022-12-26T05:58:19;101272.41;;;2.83;76.35
76311;BME280;65120;59.304;18.294;2022-12-26T06:00:46;101267.25;;;2.83;76.33
76311;BME280;65120;59.304;18.294;2022-12-26T06:03:13;101271.59;;;2.85;76.45
76311;BME280;65120;59.304;18.294;2022-12-26T06:05:40;101262.94;;;2.83;76.41
76311;BME280;65120;59.304;18.294;2022-12-26T06:08:07;101271.59;;;2.85;76.31
76311;BME280;65120;59.304;18.294;2022-12-26T06:10:35;101263.00;;;2.86;75.88
76311;BME280;65120;59.304;18.294;2022-12-26T06:13:02;101262.16;;;2.87;75.99
76311;BME280;65120;59.304;18.294;2022-12-26T06:15:29;101254.34;;;2.84;76.56
76311;BME280;65120;59.304;18.294;2022-12-26T06:17:56;101249.25;;;2.87;76.46
76311;BME280;65120;59.304;18.294;2022-12-26T06:20:23;101257.91;;;2.88;76.71
76311;BME280;65120;59.304;18.294;2022-12-26T06:22:50;101252.75;;;2.89;76.21
76311;BME280;65120;59.304;18.294;2022-12-26T06:25:17;101239.84;;;2.89;76.28
76311;BME280;65120;59.304;18.294;2022-12-26T06:27:45;101244.19;;;2.90;76.70
76311;BME280;65120;59.304;18.294;2022-12-26T06:30:12;101233.03;;;2.91;76.60
76311;BME280;65120;59.304;18.294;2022-12-26T06:32:39;101235.59;;;2.91;76.82
76311;BME280;65120;59.304;18.294;2022-12-26T06:35:07;101235.59;;;2.91;76.88
76311;BME280;65120;59.304;18.294;2022-12-26T06:37:34;101230.44;;;2.93;76.41
76311;BME280;65120;59.304;18.294;2022-12-26T06:40:01;101228.78;;;2.93;76.72
76311;BME280;65120;59.304;18.294;2022-12-26T06:42:28;101227.91;;;2.95;76.43
76311;BME280;65120;59.304;18.294;2022-12-26T06:44:56;101220.22;;;2.96;76.90
76311;BME280;65120;59.304;18.294;2022-12-26T06:47:23;101222.81;;;2.96;76.73
76311;BME280;65120;59.304;18.294;2022-12-26T06:49:50;101228.81;;;2.97;76.51
76311;BME280;65120;59.304;18.294;2022-12-26T06:52:17;101221.94;;;2.97;76.40
76311;BME280;65120;59.304;18.294;2022-12-26T06:54:44;101214.22;;;2.99;76.30
76311;BME280;65120;59.304;18.294;2022-12-26T06:57:11;101218.56;;;3.00;76.43
76311;BME280;65120;59.304;18.294;2022-12-26T06:59:37;101213.41;;;3.00;76.89
76311;BME280;65120;59.304;18.294;2022-12-26T07:02:08;101209.16;;;3.02;76.52
76311;BME280;65120;59.304;18.294;2022-12-26T07:04:35;101216.03;;;3.03;76.89
76311;BME280;65120;59.304;18.294;2022-12-26T07:07:02;101223.78;;;3.04;77.13
76311;BME280;65120;59.304;18.294;2022-12-26T07:09:29;101208.31;;;3.04;76.59
76311;BME280;65120;59.304;18.294;2022-12-26T07:11:56;101210.94;;;3.06;76.35
76311;BME280;65120;59.304;18.294;2022-12-26T07:14:23;101209.22;;;3.06;76.49
76311;BME280;65120;59.304;18.294;2022-12-26T07:16:50;101210.94;;;3.07;76.84
76311;BME280;65120;59.304;18.294;2022-12-26T07:19:18;101207.53;;;3.08;76.98
76311;BME280;65120;59.304;18.294;2022-12-26T07:21:45;101198.09;;;3.09;76.24
76311;BME280;65120;59.304;18.294;2022-12-26T07:24:13;101192.97;;;3.10;76.48
76311;BME280;65120;59.304;18.294;2022-12-26T07:26:40;101170.34;;;2.99;76.98
76311;BME280;65120;59.304;18.294;2022-12-26T07:29:08;101182.66;;;3.12;76.68
76311;BME280;65120;59.304;18.294;2022-12-26T07:31:35;101180.13;;;3.13;77.10
76311;BME280;65120;59.304;18.294;2022-12-26T07:34:02;101177.53;;;3.13;76.49
76311;BME280;65120;59.304;18.294;2022-12-26T07:36:31;101184.47;;;3.16;76.74
76311;BME280;65120;59.304;18.294;2022-12-26T07:38:58;101172.41;;;3.17;76.92
76311;BME280;65120;59.304;18.294;2022-12-26T07:41:24;101179.31;;;3.18;77.05
76311;BME280;65120;59.304;18.294;2022-12-26T07:44:09;101180.16;;;3.17;76.76
76311;BME280;65120;59.304;18.294;2022-12-26T07:46:36;101181.94;;;3.21;77.10
76311;BME280;65120;59.304;18.294;2022-12-26T07:49:03;101175.91;;;3.20;76.93
76311;BME280;65120;59.304;18.294;2022-12-26T07:51:32;101170.75;;;3.20;76.98
76311;BME280;65120;59.304;18.294;2022-12-26T07:53:58;101180.28;;;3.23;77.12
76311;BME280;65120;59.304;18.294;2022-12-26T07:56:25;101172.53;;;3.23;76.80
76311;BME280;65120;59.304;18.294;2022-12-26T07:58:52;101174.28;;;3.25;77.03
76311;BME280;65120;59.304;18.294;2022-12-26T08:01:19;101174.28;;;3.25;76.96
76311;BME280;65120;59.304;18.294;2022-12-26T08:03:47;101175.19;;;3.27;77.17
76311;BME280;65120;59.304;18.294;2022-12-26T08:06:14;101169.19;;;3.28;77.04
76311;BME280;65120;59.304;18.294;2022-12-26T08:08:42;101162.34;;;3.30;76.76
76311;BME280;65120;59.304;18.294;2022-12-26T08:11:12;101164.94;;;3.30;76.68
76311;BME280;65120;59.304;18.294;2022-12-26T08:13:40;101158.06;;;3.32;76.83
76311;BME280;65120;59.304;18.294;2022-12-26T08:16:09;101152.88;;;3.31;76.71
76311;BME280;65120;59.304;18.294;2022-12-26T08:18:36;101164.13;;;3.34;77.21
76311;BME280;65120;59.304;18.294;2022-12-26T08:21:03;101169.31;;;3.36;77.14
76311;BME280;65120;59.304;18.294;2022-12-26T08:23:30;101167.63;;;3.36;77.04
76311;BME280;65120;59.304;18.294;2022-12-26T08:26:03;101158.16;;;3.37;77.29
76311;BME280;65120;59.304;18.294;2022-12-26T08:28:30;101134.78;;;3.29;77.42
76311;BME280;65120;59.304;18.294;2022-12-26T08:30:57;101154.75;;;3.40;77.12
76311;BME280;65120;59.304;18.294;2022-12-26T08:33:24;101164.22;;;3.41;77.13
76311;BME280;65120;59.304;18.294;2022-12-26T08:35:51;101159.06;;;3.41;77.29
76311;BME280;65120;59.304;18.294;2022-12-26T08:38:18;101159.91;;;3.41;77.05
76311;BME280;65120;59.304;18.294;2022-12-26T08:40:52;101151.31;;;3.41;77.39
76311;BME280;65120;59.304;18.294;2022-12-26T08:43:22;101156.53;;;3.42;77.20
76311;BME280;65120;59.304;18.294;2022-12-26T08:45:56;101148.72;;;3.41;77.33
76311;BME280;65120;59.304;18.294;2022-12-26T08:48:23;101150.50;;;3.42;77.44
76311;BME280;65120;59.304;18.294;2022-12-26T08:50:57;101149.63;;;3.43;77.01
76311;BME280;65120;59.304;18.294;2022-12-26T08:53:25;101150.50;;;3.43;76.92
76311;BME280;65120;59.304;18.294;2022-12-26T08:55:53;101142.69;;;3.40;77.30
76311;BME280;65120;59.304;18.294;2022-12-26T08:58:22;101154.81;;;3.44;77.56
76311;BME280;65120;59.304;18.294;2022-12-26T09:00:49;101159.09;;;3.44;77.18
76311;BME280;65120;59.304;18.294;2022-12-26T09:03:16;101149.63;;;3.43;76.92
76311;BME280;65120;59.304;18.294;2022-12-26T09:05:43;101142.66;;;3.37;77.55
76311;BME280;65120;59.304;18.294;2022-12-26T09:08:10;101140.16;;;3.42;77.57
76311;BME280;65120;59.304;18.294;2022-12-26T09:10:37;101141.88;;;3.43;77.12
76311;BME280;65120;59.304;18.294;2022-12-26T09:13:05;101141.03;;;3.42;77.33
76311;BME280;65120;59.304;18.294;2022-12-26T09:15:33;101122.94;;;3.44;77.31
76311;BME280;65120;59.304;18.294;2022-12-26T09:18:00;101123.81;;;3.44;76.99
76311;BME280;65120;59.304;18.294;2022-12-26T09:20:27;101118.66;;;3.44;77.55
76311;BME280;65120;59.304;18.294;2022-12-26T09:22:54;101126.38;;;3.43;77.10
76311;BME280;65120;59.304;18.294;2022-12-26T09:25:22;101122.09;;;3.43;77.69
76311;BME280;65120;59.304;18.294;2022-12-26T09:27:50;101117.78;;;3.44;77.76
76311;BME280;65120;59.304;18.294;2022-12-26T09:30:18;101109.97;;;3.39;77.79
76311;BME280;65120;59.304;18.294;2022-12-26T09:32:48;101113.47;;;3.44;77.26
76311;BME280;65120;59.304;18.294;2022-12-26T09:35:15;101104.88;;;3.44;77.67
76311;BME280;65120;59.304;18.294;2022-12-26T09:37:42;101080.63;;;3.35;77.60
76311;BME280;65120;59.304;18.294;2022-12-26T09:40:19;101102.34;;;3.47;77.53
76311;BME280;65120;59.304;18.294;2022-12-26T09:42:54;101092.00;;;3.47;77.14
76311;BME280;65120;59.304;18.294;2022-12-26T09:45:27;101091.16;;;3.46;77.40
76311;BME280;65120;59.304;18.294;2022-12-26T09:48:03;101081.69;;;3.47;77.10
76311;BME280;65120;59.304;18.294;2022-12-26T09:50:34;101082.53;;;3.46;77.20
76311;BME280;65120;59.304;18.294;2022-12-26T09:53:04;101075.66;;;3.46;77.59
76311;BME280;65120;59.304;18.294;2022-12-26T09:55:41;101068.75;;;3.47;77.84
76311;BME280;65120;59.304;18.294;2022-12-26T09:58:20;101071.34;;;3.47;77.15
76311;BME280;65120;59.304;18.294;2022-12-26T10:00:52;101066.19;;;3.47;77.57
76311;BME280;65120;59.304;18.294;2022-12-26T10:03:22;101056.72;;;3.46;77.90
76311;BME280;65120;59.304;18.294;2022-12-26T10:06:09;101053.28;;;3.47;77.28
76311;BME280;65120;59.304;18.294;2022-12-26T10:08:49;101055.03;;;3.48;77.75
76311;BME280;65120;59.304;18.294;2022-12-26T10:11:38;101064.50;;;3.49;77.74
76311;BME280;65120;59.304;18.294;2022-12-26T10:14:12;101055.03;;;3.48;77.27
76311;BME280;65120;59.304;18.294;2022-12-26T10:16:49;101046.47;;;3.50;77.72
76311;BME280;65120;59.304;18.294;2022-12-26T10:19:46;101031.81;;;3.51;77.71
76311;BME280;65120;59.304;18.294;2022-12-26T10:22:32;101037.84;;;3.53;77.57
76311;BME280;65120;59.304;18.294;2022-12-26T10:25:02;101029.25;;;3.52;77.40
76311;BME280;65120;59.304;18.294;2022-12-26T10:27:40;101033.56;;;3.52;77.20
76311;BME280;65120;59.304;18.294;2022-12-26T10:30:24;101027.53;;;3.53;77.25
76311;BME280;65120;59.304;18.294;2022-12-26T10:32:56;101030.16;;;3.54;77.22
76311;BME280;65120;59.304;18.294;2022-12-26T10:35:31;101007.69;;;3.49;77.16
76311;BME280;65120;59.304;18.294;2022-12-26T10:38:03;101016.34;;;3.52;77.27
76311;BME280;65120;59.304;18.294;2022-12-26T10:40:37;101023.25;;;3.55;77.54
76311;BME280;65120;59.304;18.294;2022-12-26T10:43:22;101017.28;;;3.56;77.20
76311;BME280;65120;59.304;18.294;2022-12-26T10:46:03;101006.94;;;3.56;77.53
76311;BME280;65120;59.304;18.294;2022-12-26T10:48:36;101000.00;;;3.53;77.66
76311;BME280;65120;59.304;18.294;2022-12-26T10:51:05;101009.53;;;3.56;77.21
76311;BME280;65120;59.304;18.294;2022-12-26T10:53:32;101008.66;;;3.57;77.52
76311;BME280;65120;59.304;18.294;2022-12-26T10:56:00;100996.59;;;3.56;77.17
76311;BME280;65120;59.304;18.294;2022-12-26T10:58:29;100994.88;;;3.58;77.37
76311;BME280;65120;59.304;18.294;2022-12-26T11:01:28;100995.75;;;3.58;77.00
76311;BME280;65120;59.304;18.294;2022-12-26T11:03:58;100988.00;;;3.58;77.28
76311;BME280;65120;59.304;18.294;2022-12-26T11:06:29;100986.31;;;3.59;77.25
76311;BME280;65120;59.304;18.294;2022-12-26T11:08:58;100975.97;;;3.59;77.57
76311;BME280;65120;59.304;18.294;2022-12-26T11:11:26;100985.44;;;3.60;77.45
76311;BME280;65120;59.304;18.294;2022-12-26T11:14:26;100978.56;;;3.60;77.38
76311;BME280;65120;59.304;18.294;2022-12-26T11:16:56;100970.81;;;3.60;77.25
76311;BME280;65120;59.304;18.294;2022-12-26T11:19:28;100968.22;;;3.60;77.22
76311;BME280;65120;59.304;18.294;2022-12-26T11:22:13;100963.09;;;3.62;77.39
76311;BME280;65120;59.304;18.294;2022-12-26T11:24:48;100951.91;;;3.62;77.10
76311;BME280;65120;59.304;18.294;2022-12-26T11:27:27;100951.00;;;3.61;77.64
76311;BME280;65120;59.304;18.294;2022-12-26T11:30:14;100958.78;;;3.63;77.44
76311;BME280;65120;59.304;18.294;2022-12-26T11:32:42;100958.81;;;3.64;77.37
76311;BME280;65120;59.304;18.294;2022-12-26T11:35:15;100953.63;;;3.64;77.45
76311;BME280;65120;59.304;18.294;2022-12-26T11:37:45;100951.94;;;3.65;77.24
76311;BME280;65120;59.304;18.294;2022-12-26T11:40:19;100951.06;;;3.64;77.41
76311;BME280;65120;59.304;18.294;2022-12-26T11:42:49;100951.06;;;3.64;77.37
76311;BME280;65120;59.304;18.294;2022-12-26T11:45:21;100945.88;;;3.64;77.11
76311;BME280;65120;59.304;18.294;2022-12-26T11:47:49;100948.47;;;3.64;77.03
76311;BME280;65120;59.304;18.294;2022-12-26T11:50:17;100932.13;;;3.65;76.94
76311;BME280;65120;59.304;18.294;2022-12-26T11:52:54;100933.84;;;3.65;77.18
76311;BME280;65120;59.304;18.294;2022-12-26T11:55:31;100932.13;;;3.65;77.28
76311;BME280;65120;59.304;18.294;2022-12-26T11:58:00;100929.56;;;3.65;77.06
76311;BME280;65120;59.304;18.294;2022-12-26T12:00:32;100928.69;;;3.66;77.12
76311;BME280;65120;59.304;18.294;2022-12-26T12:03:00;100933.03;;;3.67;77.17
76311;BME280;65120;59.304;18.294;2022-12-26T12:05:40;100920.94;;;3.66;77.01
76311;BME280;65120;59.304;18.294;2022-12-26T12:08:31;100914.88;;;3.63;77.10
76311;BME280;65120;59.304;18.294;2022-12-26T12:11:20;100912.38;;;3.67;76.96
76311;BME280;65120;59.304;18.294;2022-12-26T12:14:12;100916.69;;;3.68;77.20
76311;BME280;65120;59.304;18.294;2022-12-26T12:16:51;100908.94;;;3.68;76.67
76311;BME280;65120;59.304;18.294;2022-12-26T12:19:32;100902.88;;;3.65;77.07
76311;BME280;65120;59.304;18.294;2022-12-26T12:22:16;100895.16;;;3.68;77.10
76311;BME280;65120;59.304;18.294;2022-12-26T12:25:00;100905.44;;;3.66;77.07
76311;BME280;65120;59.304;18.294;2022-12-26T12:27:34;100883.94;;;3.67;76.93
76311;BME280;65120;59.304;18.294;2022-12-26T12:30:10;100887.41;;;3.68;76.87
76311;BME280;65120;59.304;18.294;2022-12-26T12:32:51;100877.91;;;3.68;76.60
76311;BME280;65120;59.304;18.294;2022-12-26T12:35:29;100874.47;;;3.69;76.91
76311;BME280;65120;59.304;18.294;2022-12-26T12:38:18;100867.59;;;3.70;76.67
76311;BME280;65120;59.304;18.294;2022-12-26T12:40:56;100858.97;;;3.69;76.85
76311;BME280;65120;59.304;18.294;2022-12-26T12:43:32;100848.63;;;3.66;76.77
76311;BME280;65120;59.304;18.294;2022-12-26T12:46:09;100850.38;;;3.69;76.77
76311;BME280;65120;59.304;18.294;2022-12-26T12:48:49;100840.91;;;3.69;76.44
76311;BME280;65120;59.304;18.294;2022-12-26T12:51:26;100834.00;;;3.68;76.47
76311;BME280;65120;59.304;18.294;2022-12-26T12:54:34;100832.28;;;3.67;76.43
76311;BME280;65120;59.304;18.294;2022-12-26T12:57:13;100827.13;;;3.67;76.74
76311;BME280;65120;59.304;18.294;2022-12-26T12:59:48;100832.28;;;3.67;76.26
76311;BME280;65120;59.304;18.294;2022-12-26T13:02:19;100823.66;;;3.68;76.39
76311;BME280;65120;59.304;18.294;2022-12-26T13:04:53;100819.38;;;3.67;76.41
76311;BME280;65120;59.304;18.294;2022-12-26T13:07:24;100821.94;;;3.67;76.46
76311;BME280;65120;59.304;18.294;2022-12-26T13:09:56;100821.94;;;3.67;76.41
76311;BME280;65120;59.304;18.294;2022-12-26T13:12:29;100824.53;;;3.67;76.36
76311;BME280;65120;59.304;18.294;2022-12-26T13:15:02;100812.44;;;3.66;76.37
76311;BME280;65120;59.304;18.294;2022-12-26T13:17:35;100805.56;;;3.67;76.67
76311;BME280;65120;59.304;18.294;2022-12-26T13:20:12;100799.53;;;3.66;76.15
76311;BME280;65120;59.304;18.294;2022-12-26T13:22:43;100790.06;;;3.65;76.26
76311;BME280;65120;59.304;18.294;2022-12-26T13:25:32;100784.00;;;3.63;76.25
76311;BME280;65120;59.304;18.294;2022-12-26T13:28:03;100788.31;;;3.64;76.14
76311;BME280;65120;59.304;18.294;2022-12-26T13:30:35;100788.31;;;3.63;76.43
76311;BME280;65120;59.304;18.294;2022-12-26T13:33:03;100791.69;;;3.58;76.33
76311;BME280;65120;59.304;18.294;2022-12-26T13:35:53;100797.81;;;3.65;76.51
76311;BME280;65120;59.304;18.294;2022-12-26T13:38:21;100799.53;;;3.65;76.61
76311;BME280;65120;59.304;18.294;2022-12-26T13:40:52;100795.22;;;3.67;76.59